Terminal Aerodrome Forecast
Issued by NWS

Home | Current Version | Previous Version | Text Only | Print | Product List | Glossary On
Versions: 1 2 3 4 5 6 7 8 9 10 11 12 13 14 15 16 17
000
FTUS42 KTAE 230520
TAFABY
TAF
KABY 230520Z 2306/2406 22008KT P6SM SKC
     FM230900 27018G30KT P6SM BKN020
      TEMPO 2310/2312 -SHRA OVC015
     FM232000 29015G25KT P6SM SCT250=

USA.gov is the U.S. government's official web portal to all federal, state and local government web resources and services.